Time;durP1;ratioP1;P1;durP2;ratioP2;P2;SDS_P1;SDS_P2;PMS_P1;PMS_P2;Temp;Humidity;BMP_temperature;BMP_pressure;BME280_temperature;BME280_humidity;BME280_pressure;Samples;Min_cycle;Max_cycle;Signal;HPM_P1;HPM_P2
2024/04/13 00:01:50;;;;;;;10.5;5;;;;;;;11.27;79.52;99670;;;;
2024/04/13 00:12:51;;;;;;;10.5;5;;;;;;;11.35;79.07;99670;;;;
2024/04/13 00:22:50;;;;;;;10.5;5;;;;;;;11.28;78.44;99673.333333333;;;;
2024/04/13 00:33:51;;;;;;;15.2;5.3;;;;;;;11.15;79.14;99663.333333333;;;;
2024/04/13 00:45:01;;;;;;;15.2;5.3;;;;;;;10.95;78.69;99665;;;;
2024/04/13 00:54:52;;;;;;;7.9;5.3;;;;;;;10.86;81.02;99666.666666667;;;;
2024/04/13 01:04:51;;;;;;;7.9;5.3;;;;;;;10.88;81.13;99660;;;;
2024/04/13 01:14:51;;;;;;;7.9;5.3;;;;;;;10.83;81.42;99665;;;;
2024/04/13 01:25:51;;;;;;;12.7;7.1;;;;;;;10.7;80.71;99663.333333333;;;;
2024/04/13 01:35:50;;;;;;;12.7;7.1;;;;;;;10.67;80.68;99651.666666667;;;;
2024/04/13 01:46:51;;;;;;;12.7;7.1;;;;;;;10.57;80.19;99648.333333333;;;;
2024/04/13 01:57:50;;;;;;;8.7;5.1;;;;;;;10.44;80.39;99645;;;;
2024/04/13 02:08:51;;;;;;;8.7;5.1;;;;;;;10.17;80.48;99643.333333333;;;;
2024/04/13 02:19:51;;;;;;;8.7;5.1;;;;;;;10;80.93;99640;;;;
2024/04/13 02:29:51;;;;;;;10.1;4.2;;;;;;;10.13;82.72;99633.333333333;;;;
2024/04/13 02:39:51;;;;;;;10.1;4.2;;;;;;;10.37;82.63;99633.333333333;;;;
2024/04/13 02:50:51;;;;;;;10.1;4.2;;;;;;;10.55;82.02;99633.333333333;;;;
2024/04/13 03:01:50;;;;;;;7.1;4.4;;;;;;;10.57;81.6;99638.333333333;;;;
2024/04/13 03:11:51;;;;;;;7.1;4.4;;;;;;;10.66;81.22;99633.333333333;;;;
2024/04/13 03:22:50;;;;;;;7.1;4.4;;;;;;;10.65;81.59;99631.666666667;;;;
2024/04/13 03:32:50;;;;;;;7.4;4.5;;;;;;;10.69;80.66;99643.333333333;;;;
2024/04/13 03:43:51;;;;;;;7.4;4.5;;;;;;;10.37;79.75;99655;;;;
2024/04/13 03:54:50;;;;;;;8.7;4.2;;;;;;;10;80;99663.333333333;;;;
2024/04/13 04:04:50;;;;;;;8.7;4.2;;;;;;;9.89;81.58;99663.333333333;;;;
2024/04/13 04:14:51;;;;;;;8.7;4.2;;;;;;;10.13;84.75;99653.333333333;;;;
2024/04/13 04:25:50;;;;;;;10.1;5.8;;;;;;;10.56;83.42;99658.333333333;;;;
2024/04/13 04:35:51;;;;;;;10.1;5.8;;;;;;;10.88;82.29;99666.666666667;;;;
2024/04/13 04:45:50;;;;;;;10.1;5.8;;;;;;;11.19;81.26;99673.333333333;;;;
2024/04/13 04:55:51;;;;;;;10;5.7;;;;;;;11.49;80.34;99678.333333333;;;;
2024/04/13 05:05:51;;;;;;;10;5.7;;;;;;;11.74;79.6;99683.333333333;;;;
2024/04/13 05:16:51;;;;;;;10;5.7;;;;;;;11.89;78.58;99693.333333333;;;;
2024/04/13 05:26:55;;;;;;;12.9;7.2;;;;;;;11.81;79.06;99695;;;;
2024/04/13 05:37:51;;;;;;;12.9;7.2;;;;;;;12.01;79.16;99701.666666667;;;;
2024/04/13 05:55:59;;;;;;;15.9;9.1;;;;;;;13.18;77.63;99700;;;;
2024/04/13 06:05:59;;;;;;;15.9;9.1;;;;;;;13.85;73.99;99685;;;;
2024/04/13 06:16:59;;;;;;;15.9;9.1;;;;;;;14.83;70.53;99676.666666667;;;;
2024/04/13 06:27:59;;;;;;;13.1;7.6;;;;;;;15.49;66.6;99668.333333333;;;;
2024/04/13 06:37:59;;;;;;;13.1;7.6;;;;;;;15.97;66.23;99668.333333333;;;;
2024/04/13 06:47:59;;;;;;;13.1;7.6;;;;;;;16.53;64.93;99665;;;;
2024/04/13 06:57:59;;;;;;;8.1;5.7;;;;;;;16.95;63.67;99666.666666667;;;;
2024/04/13 07:08:59;;;;;;;8.1;5.7;;;;;;;17.06;64.01;99675;;;;
2024/04/13 07:19:59;;;;;;;8.1;5.7;;;;;;;16.93;65.05;99685;;;;
2024/04/13 07:30:59;;;;;;;10.9;6.5;;;;;;;17.09;65.13;99668.333333333;;;;
2024/04/13 07:40:59;;;;;;;10.9;6.5;;;;;;;17.13;65.96;99671.666666667;;;;
2024/04/13 07:52:00;;;;;;;10.9;6.5;;;;;;;17.22;67.46;99666.666666667;;;;
2024/04/13 08:02:59;;;;;;;12.1;8.3;;;;;;;17.46;65.87;99665;;;;
2024/04/13 08:13:59;;;;;;;12.1;8.3;;;;;;;17.67;65.59;99660;;;;
2024/04/13 08:23:59;;;;;;;12.2;8.6;;;;;;;17.58;66.37;99655;;;;
2024/04/13 08:33:59;;;;;;;12.2;8.6;;;;;;;17.9;66.71;99645;;;;
2024/04/13 08:44:59;;;;;;;12.2;8.6;;;;;;;18.59;63.93;99651.666666667;;;;
2024/04/13 08:55:59;;;;;;;11.7;8.1;;;;;;;18.99;62.11;99663.333333333;;;;
2024/04/13 09:05:59;;;;;;;11.7;8.1;;;;;;;19.49;61.94;99660;;;;
2024/04/13 09:15:59;;;;;;;11.7;8.1;;;;;;;19.94;60.19;99651.666666667;;;;
2024/04/13 09:26:59;;;;;;;10.9;6.7;;;;;;;19.87;58.98;99643.333333333;;;;
2024/04/13 09:37:01;;;;;;;10.9;6.7;;;;;;;20.1;59.56;99630;;;;
2024/04/13 09:47:59;;;;;;;10.9;6.7;;;;;;;20.53;57.3;99618.333333333;;;;
2024/04/13 09:57:59;;;;;;;12.2;7.5;;;;;;;20.82;56.64;99601.666666667;;;;
2024/04/13 10:08:59;;;;;;;12.2;7.5;;;;;;;21.2;54.98;99601.666666667;;;;
2024/04/13 10:19:59;;;;;;;12.2;7.5;;;;;;;20.9;55.21;99605;;;;
2024/04/13 10:29:59;;;;;;;8.9;6;;;;;;;20.9;56.21;99611.666666667;;;;
2024/04/13 10:39:59;;;;;;;8.9;6;;;;;;;20.75;56.56;99605;;;;
2024/04/13 10:50:59;;;;;;;8.9;6;;;;;;;21.48;54.65;99583.333333333;;;;
2024/04/13 11:01:59;;;;;;;8;5.6;;;;;;;21.23;55.22;99563.333333333;;;;
2024/04/13 11:11:59;;;;;;;8;5.6;;;;;;;21.49;55.35;99548.333333333;;;;
2024/04/13 11:22:59;;;;;;;8;5.6;;;;;;;21.8;55.06;99541.666666667;;;;
2024/04/13 11:33:59;;;;;;;8.5;4.8;;;;;;;22.18;53.06;99518.333333333;;;;
2024/04/13 11:44:59;;;;;;;8.5;4.8;;;;;;;22.18;53.52;99520;;;;
2024/04/13 11:54:59;;;;;;;10.2;4.6;;;;;;;22.02;52.8;99513.333333333;;;;
2024/04/13 12:04:59;;;;;;;10.2;4.6;;;;;;;22.3;52.55;99511.666666667;;;;
2024/04/13 12:14:59;;;;;;;10.2;4.6;;;;;;;22.41;51.89;99506.666666667;;;;
2024/04/13 12:24:59;;;;;;;9.4;4;;;;;;;22.47;50.33;99490;;;;
2024/04/13 12:34:59;;;;;;;9.4;4;;;;;;;22.74;49.15;99480;;;;
2024/04/13 12:45:59;;;;;;;9.4;4;;;;;;;23.1;48.62;99468.333333333;;;;
2024/04/13 12:55:59;;;;;;;9.4;3.8;;;;;;;22.72;47.82;99455;;;;
2024/04/13 13:06:59;;;;;;;9.4;3.8;;;;;;;22.99;48.75;99441.666666667;;;;
2024/04/13 13:16:59;;;;;;;9.4;3.8;;;;;;;23.1;47.37;99436.666666667;;;;
2024/04/13 13:27:01;;;;;;;6.7;3.1;;;;;;;22.67;48.76;99425;;;;
2024/04/13 13:36:59;;;;;;;6.7;3.1;;;;;;;22.8;48.83;99415;;;;
2024/04/13 13:47:59;;;;;;;6.7;3.1;;;;;;;23.18;47.07;99401.666666667;;;;
2024/04/13 13:58:00;;;;;;;7;3.1;;;;;;;23.29;47.58;99395;;;;
2024/04/13 14:08:59;;;;;;;7;3.1;;;;;;;23.32;48.73;99375;;;;
2024/04/13 14:18:59;;;;;;;7;3.1;;;;;;;22.81;47.08;99381.666666667;;;;
2024/04/13 14:28:59;;;;;;;7.5;2.8;;;;;;;22.74;47.67;99381.666666667;;;;
2024/04/13 14:38:59;;;;;;;7.5;2.8;;;;;;;22.54;48.67;99375;;;;
2024/04/13 14:48:59;;;;;;;7.5;2.8;;;;;;;22.6;47.86;99365;;;;
2024/04/13 14:59:59;;;;;;;6.5;2.8;;;;;;;22.96;48.93;99368.333333333;;;;
2024/04/13 15:10:59;;;;;;;6.5;2.8;;;;;;;23.68;46.25;99356.666666667;;;;
2024/04/13 15:20:59;;;;;;;6.5;2.8;;;;;;;24.01;45.48;99356.666666667;;;;
2024/04/13 15:30:59;;;;;;;4.1;2.4;;;;;;;23.72;45.75;99340;;;;
2024/04/13 15:41:59;;;;;;;4.1;2.4;;;;;;;25.15;43.39;99338.333333333;;;;
2024/04/13 15:51:59;;;;;;;4.1;2.4;;;;;;;25.36;42.97;99336.666666667;;;;
2024/04/13 16:01:59;;;;;;;6.5;2.9;;;;;;;25.86;41;99336.666666667;;;;
2024/04/13 16:11:59;;;;;;;6.5;2.9;;;;;;;26.36;40.35;99331.666666667;;;;
2024/04/13 16:22:59;;;;;;;6.5;2.9;;;;;;;25.13;41.4;99330;;;;
2024/04/13 16:32:59;;;;;;;5;2.5;;;;;;;23.24;45.27;99338.333333333;;;;
2024/04/13 16:43:59;;;;;;;5;2.5;;;;;;;21.89;49.19;99330;;;;
2024/04/13 16:53:59;;;;;;;5.8;3;;;;;;;21.17;50.2;99321.666666667;;;;
2024/04/13 17:05:00;;;;;;;5.8;3;;;;;;;20.5;52.36;99326.666666667;;;;
2024/04/13 17:15:59;;;;;;;5.8;3;;;;;;;19.84;54.63;99326.666666667;;;;
2024/04/13 17:25:59;;;;;;;8.6;6.1;;;;;;;19.07;56.38;99325;;;;
2024/04/13 17:36:59;;;;;;;8.6;6.1;;;;;;;18.26;58.44;99326.666666667;;;;
2024/04/13 17:47:59;;;;;;;8.6;6.1;;;;;;;17.54;60.94;99323.333333333;;;;
2024/04/13 17:57:59;;;;;;;18.8;13.8;;;;;;;17.18;62.67;99316.666666667;;;;
2024/04/13 18:08:59;;;;;;;18.8;13.8;;;;;;;16.66;63.96;99328.333333333;;;;
2024/04/13 18:18:59;;;;;;;18.8;13.8;;;;;;;16.25;66.3;99333.333333333;;;;
2024/04/13 18:29:59;;;;;;;9.6;7.8;;;;;;;16.04;67.75;99333.333333333;;;;
2024/04/13 18:40:59;;;;;;;9.6;7.8;;;;;;;15.96;69.03;99345;;;;
2024/04/13 18:50:59;;;;;;;9.6;7.8;;;;;;;15.76;69.38;99346.666666667;;;;
2024/04/13 19:00:59;;;;;;;12.4;8.1;;;;;;;15.7;70.72;99333.333333333;;;;
2024/04/13 19:10:59;;;;;;;12.4;8.1;;;;;;;15.7;70.81;99321.666666667;;;;
2024/04/13 19:21:02;;;;;;;12.4;8.1;;;;;;;15.66;69.73;99335;;;;
2024/04/13 19:31:00;;;;;;;10;7.9;;;;;;;15.58;70.54;99326.666666667;;;;
2024/04/13 19:42:01;;;;;;;10;7.9;;;;;;;15.61;70.72;99316.666666667;;;;
2024/04/13 19:52:00;;;;;;;10;7.9;;;;;;;15.64;71.61;99318.333333333;;;;
2024/04/13 20:02:59;;;;;;;10.7;6.8;;;;;;;15.71;72.02;99310;;;;
2024/04/13 20:12:59;;;;;;;10.7;6.8;;;;;;;15.53;73.26;99313.333333333;;;;
2024/04/13 20:22:59;;;;;;;10.7;6.8;;;;;;;15.36;74.79;99301.666666667;;;;
2024/04/13 20:33:00;;;;;;;14.5;11;;;;;;;15.24;75.16;99296.666666667;;;;
2024/04/13 20:43:59;;;;;;;14.5;11;;;;;;;15.08;75.01;99280;;;;
2024/04/13 20:54:59;;;;;;;12.6;11.2;;;;;;;15.05;74.36;99266.666666667;;;;
2024/04/13 21:05:59;;;;;;;12.6;11.2;;;;;;;14.92;74.65;99261.666666667;;;;
2024/04/13 21:15:59;;;;;;;12.6;11.2;;;;;;;14.9;73.69;99243.333333333;;;;
2024/04/13 21:25:59;;;;;;;11;7.9;;;;;;;14.78;73.51;99241.666666667;;;;
2024/04/13 21:35:59;;;;;;;11;7.9;;;;;;;14.64;73.19;99235;;;;
2024/04/13 21:47:00;;;;;;;11;7.9;;;;;;;14.66;72.71;99215;;;;
2024/04/13 21:57:59;;;;;;;8.7;5.9;;;;;;;14.48;72.11;99213.333333333;;;;
2024/04/13 22:07:59;;;;;;;8.7;5.9;;;;;;;14.16;72.56;99218.333333333;;;;
2024/04/13 22:18:00;;;;;;;8.7;5.9;;;;;;;13.92;73.24;99211.666666667;;;;
2024/04/13 22:29:00;;;;;;;9.1;6.3;;;;;;;13.61;74.77;99201.666666667;;;;
2024/04/13 22:39:59;;;;;;;9.1;6.3;;;;;;;13.81;75.01;99188.333333333;;;;
2024/04/13 22:49:59;;;;;;;9.1;6.3;;;;;;;13.82;75.38;99183.333333333;;;;
2024/04/13 23:00:00;;;;;;;9.9;6.5;;;;;;;13.8;74.62;99170;;;;
2024/04/13 23:09:59;;;;;;;9.9;6.5;;;;;;;13.51;74.78;99170;;;;
2024/04/13 23:20:59;;;;;;;9.9;6.5;;;;;;;13.13;75.37;99153.333333333;;;;
2024/04/13 23:31:59;;;;;;;13.7;10.9;;;;;;;12.78;76.3;99138.333333333;;;;
2024/04/13 23:42:59;;;;;;;13.7;10.9;;;;;;;12.45;77.71;99123.333333333;;;;
2024/04/13 23:54:00;;;;;;;16.6;13.5;;;;;;;12.21;79.66;99115;;;;
